Terminal Aerodrome Forecast
Issued by NWS

Home | Current Version | Previous Version | Text Only | Print | Product List | Glossary On
Versions: 1 2 3 4 5 6 7 8 9 10 11 12
000
FTUS45 KRIW 021124
TAFWRL
TAF
KWRL 021124Z 0212/0312 VRB06KT P6SM SCT200
     FM021900 04007KT P6SM SCT200
     FM030400 VRB05KT P6SM FEW120 SCT200=

USA.gov is the U.S. government's official web portal to all federal, state and local government web resources and services.